createdAt,value
2022-11-12T00:01:54.857Z,99.9
2022-11-12T00:03:52.397Z,99.9
2022-11-12T00:05:58.051Z,99.9
2022-11-12T00:07:55.548Z,99.9
2022-11-12T00:09:53.141Z,99.9
2022-11-12T00:12:20.163Z,99.9
2022-11-12T00:14:17.711Z,99.9
2022-11-12T00:16:15.318Z,99.9
2022-11-12T00:18:20.837Z,99.9
2022-11-12T00:22:16.056Z,99.9
2022-11-12T00:24:13.668Z,99.9
2022-11-12T00:26:11.290Z,99.9
2022-11-12T00:32:11.968Z,99.9
2022-11-12T00:34:09.584Z,99.9
2022-11-12T00:40:02.431Z,99.9
2022-11-12T00:42:00.026Z,99.9
2022-11-12T00:43:57.632Z,99.9
2022-11-12T00:46:03.132Z,99.9
2022-11-12T00:48:00.743Z,99.9
2022-11-12T00:49:58.334Z,99.9
2022-11-12T00:51:55.959Z,99.9
2022-11-12T00:53:53.563Z,99.9
2022-11-12T00:55:51.148Z,99.9
2022-11-12T00:59:54.255Z,99.9
2022-11-12T01:01:51.860Z,99.9
2022-11-12T01:03:49.509Z,99.9
2022-11-12T01:04:52.261Z,99.9
2022-11-12T01:06:49.949Z,99.9
2022-11-12T01:10:45.044Z,99.9
2022-11-12T01:12:50.535Z,99.9
2022-11-12T01:14:48.147Z,99.9
2022-11-12T01:16:45.774Z,99.9
2022-11-12T01:18:43.382Z,99.9
2022-11-12T01:20:40.983Z,99.9
2022-11-12T01:22:38.554Z,99.9
2022-11-12T01:26:41.652Z,99.9
2022-11-12T01:28:39.241Z,99.9
2022-11-12T01:32:34.426Z,99.9
2022-11-12T01:34:32.021Z,99.9
2022-11-12T01:38:27.774Z,99.9
2022-11-12T01:40:32.720Z,99.9
2022-11-12T01:42:30.326Z,99.9
2022-11-12T01:44:27.943Z,99.9
2022-11-12T01:46:25.510Z,99.9
2022-11-12T01:48:23.169Z,99.9
2022-11-12T01:50:20.698Z,99.9
2022-11-12T01:54:23.815Z,99.9
2022-11-12T01:56:21.496Z,99.9
2022-11-12T01:58:19.024Z,99.9
2022-11-12T01:59:21.769Z,99.9
2022-11-12T02:01:19.440Z,99.9
2022-11-12T02:03:16.953Z,99.9
2022-11-12T02:05:14.567Z,99.9
2022-11-12T02:07:20.114Z,99.9
2022-11-12T02:09:17.696Z,99.9
2022-11-12T02:11:15.305Z,99.9
2022-11-12T02:13:12.917Z,99.9
2022-11-12T02:15:10.525Z,99.9
2022-11-12T02:17:08.106Z,99.9
2022-11-12T02:19:05.722Z,99.9
2022-11-12T02:21:11.229Z,99.9
2022-11-12T02:25:06.423Z,99.9
2022-11-12T02:27:04.033Z,99.9
2022-11-12T02:29:01.625Z,99.9
2022-11-12T02:30:59.226Z,99.9
2022-11-12T02:32:56.814Z,99.9
2022-11-12T02:35:02.343Z,99.9
2022-11-12T02:36:59.903Z,99.9
2022-11-12T02:38:57.505Z,99.9
2022-11-12T02:44:50.328Z,99.9
2022-11-12T02:50:51.020Z,99.9
2022-11-12T02:52:48.633Z,99.9
2022-11-12T02:53:51.345Z,99.9
2022-11-12T02:55:48.955Z,99.9
2022-11-12T02:59:44.178Z,99.9
2022-11-12T03:01:49.720Z,99.9
2022-11-12T03:03:47.317Z,99.9
2022-11-12T03:05:44.914Z,99.9
2022-11-12T03:07:42.503Z,99.9
2022-11-12T03:09:40.102Z,99.9
2022-11-12T03:17:38.398Z,99.9
2022-11-12T03:19:35.976Z,99.9
2022-11-12T03:21:33.579Z,99.9
2022-11-12T03:23:31.184Z,99.9
2022-11-12T03:25:28.820Z,99.9
2022-11-12T03:27:26.419Z,99.9
2022-11-12T03:29:31.896Z,99.9
2022-11-12T03:31:29.510Z,99.9
2022-11-12T03:33:27.091Z,99.9
2022-11-12T03:35:24.682Z,99.9
2022-11-12T03:37:22.294Z,99.9
2022-11-12T03:39:19.899Z,99.9
2022-11-12T03:43:23.001Z,99.9
2022-11-12T03:49:41.090Z,99.9
2022-11-12T03:51:38.714Z,99.9
2022-11-12T03:53:36.287Z,99.9
2022-11-12T03:57:39.386Z,99.9
2022-11-12T03:59:36.994Z,99.9
2022-11-12T04:01:34.643Z,99.9
2022-11-12T04:07:27.383Z,99.9
2022-11-12T04:09:32.855Z,99.9
2022-11-12T04:11:30.447Z,99.9
2022-11-12T04:13:28.054Z,99.9
2022-11-12T04:15:25.661Z,99.9
2022-11-12T04:17:24.803Z,99.9
2022-11-12T04:19:22.376Z,99.9
2022-11-12T04:23:25.423Z,99.9
2022-11-12T04:25:23.002Z,99.9
2022-11-12T04:27:20.612Z,99.9
2022-11-12T04:33:13.395Z,99.9
2022-11-12T04:35:11.075Z,99.9
2022-11-12T04:37:20.972Z,99.9
2022-11-12T04:39:14.110Z,99.9
2022-11-12T04:41:11.750Z,99.9
2022-11-12T04:42:14.484Z,99.9
2022-11-12T04:44:12.098Z,99.9
2022-11-12T04:46:09.834Z,99.9
2022-11-12T04:48:07.295Z,99.9
2022-11-12T04:50:12.781Z,99.9
2022-11-12T04:52:10.384Z,99.9
2022-11-12T04:54:07.977Z,99.9
2022-11-12T04:56:05.567Z,99.9
2022-11-12T04:58:03.171Z,99.9
2022-11-12T05:06:01.622Z,99.9
2022-11-12T05:09:56.645Z,99.9
2022-11-12T05:11:54.222Z,99.9
2022-11-12T05:13:51.823Z,99.9
2022-11-12T05:19:52.516Z,99.9
2022-11-12T05:27:42.886Z,99.9
2022-11-12T05:29:40.456Z,99.9
2022-11-12T05:31:45.965Z,99.9
2022-11-12T05:33:43.574Z,99.9
2022-11-12T05:35:41.164Z,99.9
2022-11-12T05:36:43.913Z,99.9
2022-11-12T05:50:45.182Z,99.9
2022-11-12T05:52:32.514Z,99.9
2022-11-12T05:54:30.104Z,99.9
2022-11-12T05:56:27.692Z,99.9
2022-11-12T05:58:33.208Z,99.9
2022-11-12T06:00:30.805Z,99.9
2022-11-12T06:02:28.435Z,99.9
2022-11-12T06:04:25.981Z,99.9
2022-11-12T06:06:23.577Z,99.9
2022-11-12T06:08:21.176Z,99.9
2022-11-12T06:12:24.234Z,99.9
2022-11-12T06:16:19.408Z,99.9
2022-11-12T06:18:16.984Z,99.9
2022-11-12T06:20:14.556Z,99.9
2022-11-12T06:22:12.153Z,99.9
2022-11-12T06:24:09.749Z,99.9
2022-11-12T06:26:15.406Z,99.9
2022-11-12T06:28:12.885Z,99.9
2022-11-12T06:31:13.151Z,99.9
2022-11-12T06:33:10.742Z,99.9
2022-11-12T06:35:08.335Z,99.9
2022-11-12T06:37:05.893Z,99.9
2022-11-12T06:39:11.377Z,99.9
2022-11-12T06:41:08.964Z,99.9
2022-11-12T06:43:06.549Z,99.9
2022-11-12T06:45:04.149Z,99.9
2022-11-12T06:48:59.305Z,99.9
2022-11-12T06:50:56.900Z,99.9
2022-11-12T06:53:02.370Z,99.9
2022-11-12T06:56:57.557Z,99.9
2022-11-12T06:58:55.138Z,99.9
2022-11-12T07:00:52.731Z,99.9
2022-11-12T07:02:50.302Z,99.9
2022-11-12T07:04:47.895Z,99.9
2022-11-12T07:06:53.438Z,99.9
2022-11-12T07:08:50.961Z,99.9
2022-11-12T07:10:48.549Z,99.9
2022-11-12T07:12:52.026Z,99.9
2022-11-12T07:14:43.721Z,99.9
2022-11-12T07:16:41.305Z,99.9
2022-11-12T07:18:38.879Z,99.9
2022-11-12T07:20:44.377Z,99.9
2022-11-12T07:22:41.937Z,99.9
2022-11-12T07:24:39.545Z,99.9
2022-11-12T07:26:56.552Z,99.9
2022-11-12T07:28:54.135Z,99.9
2022-11-12T07:30:51.723Z,99.9
2022-11-12T07:32:57.234Z,99.9
2022-11-12T07:34:54.815Z,99.9
2022-11-12T07:36:52.377Z,99.9
2022-11-12T07:38:49.971Z,99.9
2022-11-12T07:40:47.558Z,99.9
2022-11-12T07:42:45.167Z,99.9
2022-11-12T07:46:48.238Z,99.9
2022-11-12T07:48:45.798Z,99.9
2022-11-12T07:50:43.391Z,99.9
2022-11-12T07:54:38.581Z,99.9
2022-11-12T07:56:36.167Z,99.9
2022-11-12T08:02:36.836Z,99.9
2022-11-12T08:04:34.419Z,99.9
2022-11-12T08:06:32.002Z,99.9
2022-11-12T08:08:29.946Z,99.9
2022-11-12T08:10:27.243Z,99.9
2022-11-12T08:12:24.782Z,99.9
2022-11-12T08:14:30.273Z,99.9
2022-11-12T08:16:27.875Z,99.9
2022-11-12T08:18:25.685Z,99.9
2022-11-12T08:19:28.193Z,99.9
2022-11-12T08:21:25.795Z,99.9
2022-11-12T08:23:23.366Z,99.9
2022-11-12T08:27:26.450Z,99.9
2022-11-12T08:29:24.062Z,99.9
2022-11-12T08:31:21.646Z,99.9
2022-11-12T08:33:19.228Z,99.9
2022-11-12T08:35:16.828Z,99.9
2022-11-12T08:37:14.427Z,99.9
2022-11-12T08:39:12.022Z,99.9
2022-11-12T08:41:17.534Z,99.9
2022-11-12T08:43:15.135Z,99.9
2022-11-12T08:45:12.725Z,99.9
2022-11-12T08:47:10.316Z,99.9
2022-11-12T08:49:07.911Z,99.9
2022-11-12T08:51:05.495Z,99.9
2022-11-12T08:53:03.079Z,99.9
2022-11-12T08:57:06.188Z,99.9
2022-11-12T08:59:07.180Z,99.9
2022-11-12T09:04:56.645Z,99.9
2022-11-12T09:06:54.396Z,99.9
2022-11-12T09:08:59.761Z,99.9
2022-11-12T09:10:57.386Z,99.9
2022-11-12T09:13:57.783Z,99.9
2022-11-12T09:15:55.364Z,99.9
2022-11-12T09:17:52.972Z,99.9
2022-11-12T09:19:50.573Z,99.9
2022-11-12T09:21:56.078Z,99.9
2022-11-12T09:23:53.674Z,99.9
2022-11-12T09:25:51.286Z,99.9
2022-11-12T09:27:48.888Z,99.9
2022-11-12T09:29:46.497Z,99.9
2022-11-12T09:31:44.128Z,99.9
2022-11-12T09:33:41.709Z,99.9
2022-11-12T09:35:47.241Z,99.9
2022-11-12T09:37:44.846Z,99.9
2022-11-12T09:39:42.963Z,99.9
2022-11-12T09:41:40.587Z,99.9
2022-11-12T09:43:38.193Z,99.9
2022-11-12T09:45:35.808Z,99.9
2022-11-12T09:49:38.944Z,99.9
2022-11-12T09:51:36.546Z,99.9
2022-11-12T09:53:34.156Z,99.9
2022-11-12T09:57:29.389Z,99.9
2022-11-12T09:59:28.565Z,99.9
2022-11-12T10:01:26.189Z,99.9
2022-11-12T10:03:31.649Z,99.9
2022-11-12T10:05:29.244Z,99.9
2022-11-12T10:07:26.855Z,99.9
2022-11-12T10:08:30.048Z,99.9
2022-11-12T10:10:27.231Z,99.9
2022-11-12T10:12:24.815Z,99.9
2022-11-12T10:14:22.449Z,99.9
2022-11-12T10:16:27.958Z,99.9
2022-11-12T10:18:25.941Z,99.9
2022-11-12T10:20:23.175Z,99.9
2022-11-12T10:22:20.821Z,99.9
2022-11-12T10:24:18.427Z,99.9
2022-11-12T10:26:16.074Z,99.9
2022-11-12T10:30:19.228Z,99.9
2022-11-12T10:32:16.855Z,99.9
2022-11-12T10:34:14.570Z,99.9
2022-11-12T10:36:12.256Z,99.9
2022-11-12T10:38:09.734Z,99.9
2022-11-12T10:40:07.351Z,99.9
2022-11-12T10:44:10.510Z,99.8
2022-11-12T10:46:08.141Z,99.8
2022-11-12T10:48:05.802Z,99.7
2022-11-12T10:50:03.423Z,99.6
2022-11-12T10:52:01.048Z,99.3
2022-11-12T10:53:58.660Z,99.1
2022-11-12T10:55:56.270Z,98.7
2022-11-12T10:59:59.434Z,98
2022-11-12T11:01:57.189Z,97.8
2022-11-12T11:04:20.502Z,97.1
2022-11-12T11:08:15.761Z,95.8
2022-11-12T11:12:18.926Z,92.7
2022-11-12T11:14:16.555Z,91.2
2022-11-12T11:18:11.809Z,87.9
2022-11-12T11:20:09.446Z,86.5
2022-11-12T11:22:07.103Z,84.3
2022-11-12T11:24:12.657Z,81.6
2022-11-12T11:26:10.224Z,79.9
2022-11-12T11:28:07.872Z,79.5
2022-11-12T11:30:05.499Z,78.7
2022-11-12T11:32:03.132Z,77.5
2022-11-12T11:34:00.755Z,76.7
2022-11-12T11:35:58.369Z,75.1
2022-11-12T11:41:59.116Z,71.3
2022-11-12T11:43:56.745Z,70
2022-11-12T11:49:49.475Z,67.4
2022-11-12T11:53:52.593Z,65.7
2022-11-12T11:55:50.195Z,64.2
2022-11-12T11:56:52.933Z,62.7
2022-11-12T11:58:50.512Z,61.1
2022-11-12T12:00:48.086Z,60.4
2022-11-12T12:02:45.633Z,59.6
2022-11-12T12:04:51.149Z,58.6
2022-11-12T12:06:48.789Z,58.2
2022-11-12T12:08:46.282Z,57.1
2022-11-12T12:11:06.809Z,55.9
2022-11-12T12:12:41.381Z,55.3
2022-11-12T12:14:38.945Z,54.3
2022-11-12T12:16:36.506Z,53.8
2022-11-12T12:20:39.544Z,52.2
2022-11-12T12:22:37.074Z,51.5
2022-11-12T12:28:30.006Z,49.5
2022-11-12T12:30:27.145Z,48.9
2022-11-12T12:32:32.603Z,47.8
2022-11-12T12:34:30.101Z,47.5
2022-11-12T12:36:27.596Z,47.1
2022-11-12T12:38:25.549Z,46.6
2022-11-12T12:44:17.490Z,46
2022-11-12T12:48:20.431Z,52.9
2022-11-12T12:50:17.929Z,55
2022-11-12T12:51:20.646Z,58.9
2022-11-12T12:53:18.127Z,59.6
2022-11-12T12:55:15.605Z,61.1
2022-11-12T12:57:13.125Z,62.4
2022-11-12T12:59:18.572Z,64.7
2022-11-12T13:05:11.192Z,67.1
2022-11-12T13:07:10.918Z,67.5
2022-11-12T13:09:06.212Z,68.1
2022-11-12T13:11:03.764Z,69
2022-11-12T13:13:09.186Z,69.7
2022-11-12T13:15:06.769Z,70
2022-11-12T13:17:04.338Z,70.3
2022-11-12T13:19:01.891Z,70.8
2022-11-12T13:20:59.472Z,71.1
2022-11-12T13:22:57.037Z,71.5
2022-11-12T13:24:54.625Z,71.9
2022-11-12T13:27:00.188Z,72.7
2022-11-12T13:28:57.687Z,72.9
2022-11-12T13:30:55.281Z,73.2
2022-11-12T13:34:50.454Z,73.7
2022-11-12T13:36:48.026Z,74.2
2022-11-12T13:38:45.618Z,75.1
2022-11-12T13:42:48.741Z,77.1
2022-11-12T13:45:49.087Z,77.8
2022-11-12T13:47:46.697Z,78.2
2022-11-12T13:49:44.290Z,78.3
2022-11-12T13:51:41.892Z,78.3
2022-11-12T13:53:47.420Z,78.9
2022-11-12T13:57:42.592Z,78.9
2022-11-12T13:59:40.205Z,79
2022-11-12T14:01:37.838Z,78.9
2022-11-12T14:03:35.441Z,78.8
2022-11-12T14:05:33.045Z,78.7
2022-11-12T14:07:38.591Z,78.5
2022-11-12T14:09:36.198Z,78.3
2022-11-12T14:11:33.840Z,78.5
2022-11-12T14:13:31.426Z,78.6
2022-11-12T14:15:29.062Z,79.3
2022-11-12T14:17:26.690Z,80.3
2022-11-12T14:19:24.306Z,80.6
2022-11-12T14:21:29.835Z,81.5
2022-11-12T14:23:27.441Z,81.9
2022-11-12T14:31:17.927Z,83.3
2022-11-12T14:33:15.526Z,83.7
2022-11-12T14:35:21.070Z,84.5
2022-11-12T14:37:18.676Z,84.8
2022-11-12T14:39:16.283Z,84.9
2022-11-12T14:41:43.254Z,85.2
2022-11-12T14:45:38.473Z,85.6
2022-11-12T14:47:43.983Z,86.3
2022-11-12T14:49:44.461Z,86.5
2022-11-12T14:51:39.238Z,87
2022-11-12T14:53:36.845Z,87.2
2022-11-12T14:57:32.112Z,87.5
2022-11-12T14:59:29.727Z,87.5
2022-11-12T15:02:14.612Z,87.2
2022-11-12T15:03:32.908Z,86.9
2022-11-12T15:05:30.563Z,86.5
2022-11-12T15:07:28.172Z,86.3
2022-11-12T15:09:25.806Z,86.2
2022-11-12T15:11:23.440Z,86.1
2022-11-12T15:13:21.087Z,86.3
2022-11-12T15:15:26.599Z,86.8
2022-11-12T15:17:24.276Z,87
2022-11-12T15:19:21.887Z,87.1
2022-11-12T15:21:19.533Z,87.2
2022-11-12T15:23:17.160Z,87.2
2022-11-12T15:25:14.822Z,87.4
2022-11-12T15:27:12.432Z,87.6
2022-11-12T15:29:17.950Z,88.2
2022-11-12T15:31:15.578Z,88.6
2022-11-12T15:33:13.210Z,88.9
2022-11-12T15:34:16.017Z,89.3
2022-11-12T15:36:13.632Z,89.6
2022-11-12T15:38:11.257Z,89.8
2022-11-12T15:40:10.448Z,90
2022-11-12T15:42:15.938Z,90.2
2022-11-12T15:44:13.572Z,90.3
2022-11-12T15:48:08.817Z,90.5
2022-11-12T15:56:07.237Z,91.2
2022-11-12T16:00:07.737Z,91.4
2022-11-12T16:02:00.179Z,91.5
2022-11-12T16:03:57.754Z,91.7
2022-11-12T16:05:55.418Z,91.8
2022-11-12T16:07:53.025Z,92
2022-11-12T16:09:58.532Z,92.4
2022-11-12T16:11:56.172Z,92.6
2022-11-12T16:13:53.803Z,92.6
2022-11-12T16:15:51.421Z,92.6
2022-11-12T16:17:49.050Z,92.4
2022-11-12T16:19:46.698Z,92.3
2022-11-12T16:21:44.375Z,92.2
2022-11-12T16:23:49.887Z,92.1
2022-11-12T16:25:47.644Z,92.1
2022-11-12T16:27:45.107Z,92.2
2022-11-12T16:28:47.901Z,92.3
2022-11-12T16:30:45.520Z,92.3
2022-11-12T16:32:43.143Z,92.3
2022-11-12T16:34:40.792Z,92.3
2022-11-12T16:36:46.335Z,92.1
2022-11-12T16:38:43.954Z,92
2022-11-12T16:40:41.596Z,91.9
2022-11-12T16:42:39.232Z,91.9
2022-11-12T16:44:36.826Z,92
2022-11-12T16:46:34.468Z,92.2
2022-11-12T16:48:32.133Z,92.2
2022-11-12T16:50:37.657Z,92.4
2022-11-12T16:52:35.278Z,92.6
2022-11-12T16:54:32.926Z,92.6
2022-11-12T16:56:30.537Z,92.6
2022-11-12T17:02:23.469Z,93.1
2022-11-12T17:08:24.287Z,94
2022-11-12T17:10:21.951Z,94.3
2022-11-12T17:12:19.573Z,94.6
2022-11-12T17:14:17.199Z,95
2022-11-12T17:16:14.800Z,95.4
2022-11-12T17:20:18.006Z,96.8
2022-11-12T17:22:15.609Z,97.2
2022-11-12T17:23:18.399Z,97.6
2022-11-12T17:27:13.643Z,98.1
2022-11-12T17:29:11.277Z,98.3
2022-11-12T17:31:16.777Z,99
2022-11-12T17:33:14.426Z,99.3
2022-11-12T17:35:12.027Z,99.5
2022-11-12T17:37:09.675Z,99.7
2022-11-12T17:39:07.311Z,99.8
2022-11-12T17:41:04.956Z,99.9
2022-11-12T17:43:02.567Z,99.9
2022-11-12T17:45:08.186Z,99.9
2022-11-12T17:47:05.806Z,99.9
2022-11-12T17:49:03.441Z,99.9
2022-11-12T17:51:01.088Z,99.9
2022-11-12T17:54:56.329Z,99.9
2022-11-12T17:56:53.973Z,99.9
2022-11-12T17:58:59.502Z,99.9
2022-11-12T18:00:57.362Z,99.9
2022-11-12T18:02:54.785Z,99.9
2022-11-12T18:04:52.416Z,99.9
2022-11-12T18:12:50.857Z,99.9
2022-11-12T18:14:48.453Z,99.9
2022-11-12T18:16:46.135Z,99.9
2022-11-12T18:21:10.658Z,99.9
2022-11-12T18:23:08.278Z,99.9
2022-11-12T18:25:13.811Z,99.9
2022-11-12T18:27:11.456Z,99.9
2022-11-12T18:29:09.050Z,99.9
2022-11-12T18:31:06.695Z,99.9
2022-11-12T18:33:04.326Z,99.9
2022-11-12T18:35:01.983Z,99.9
2022-11-12T18:36:59.597Z,99.9
2022-11-12T18:39:05.135Z,99.9
2022-11-12T18:43:00.354Z,99.9
2022-11-12T18:44:57.977Z,99.9
2022-11-12T18:46:55.585Z,99.9
2022-11-12T18:48:53.214Z,99.9
2022-11-12T18:50:51.047Z,99.9
2022-11-12T18:52:56.402Z,99.9
2022-11-12T18:54:54.032Z,99.9
2022-11-12T18:56:51.645Z,99.9
2022-11-12T19:00:46.930Z,99.9
2022-11-12T19:02:44.513Z,99.9
2022-11-12T19:04:45.406Z,99.9
2022-11-12T19:06:47.758Z,99.9
2022-11-12T19:08:45.307Z,99.9
2022-11-12T19:10:42.908Z,99.9
2022-11-12T19:11:45.696Z,99.9
2022-11-12T19:13:43.325Z,99.9
2022-11-12T19:15:40.922Z,99.9
2022-11-12T19:19:44.094Z,99.9
2022-11-12T19:25:36.952Z,99.9
2022-11-12T19:27:34.569Z,99.9
2022-11-12T19:29:32.211Z,99.9
2022-11-12T19:31:29.835Z,99.9
2022-11-12T19:33:35.387Z,99.9
2022-11-12T19:35:33.004Z,99.9
2022-11-12T19:37:34.381Z,99.9
2022-11-12T19:39:28.263Z,99.9
2022-11-12T19:41:25.894Z,99.9
2022-11-12T19:43:23.532Z,99.9
2022-11-12T19:45:21.134Z,99.9
2022-11-12T19:47:26.697Z,99.9
2022-11-12T19:49:24.285Z,99.9
2022-11-12T19:53:19.531Z,99.9
2022-11-12T19:57:14.752Z,99.9
2022-11-12T19:59:12.369Z,99.9
2022-11-12T20:01:18.044Z,99.9
2022-11-12T20:03:15.528Z,99.9
2022-11-12T20:05:13.179Z,99.9
2022-11-12T20:06:15.936Z,99.9
2022-11-12T20:08:13.578Z,99.9
2022-11-12T20:10:11.213Z,99.9
2022-11-12T20:12:08.824Z,99.9
2022-11-12T20:14:14.339Z,99.9
2022-11-12T20:16:11.952Z,99.9
2022-11-12T20:18:09.613Z,99.9
2022-11-12T20:20:07.255Z,99.9
2022-11-12T20:22:04.905Z,99.9
2022-11-12T20:24:02.538Z,99.9
2022-11-12T20:26:00.139Z,99.9
2022-11-12T20:28:05.653Z,99.9
2022-11-12T20:30:03.289Z,99.9
2022-11-12T20:32:00.915Z,99.9
2022-11-12T20:33:58.538Z,99.9
2022-11-12T20:35:56.148Z,99.9
2022-11-12T20:37:53.777Z,99.9
2022-11-12T20:39:51.366Z,99.9
2022-11-12T20:41:56.915Z,99.9
2022-11-12T20:43:54.545Z,99.9
2022-11-12T20:45:52.177Z,99.9
2022-11-12T20:47:49.790Z,99.9
2022-11-12T20:49:47.409Z,99.9
2022-11-12T20:51:45.053Z,99.9
2022-11-12T20:53:42.681Z,99.9
2022-11-12T20:55:48.174Z,99.9
2022-11-12T20:57:45.789Z,99.9
2022-11-12T20:59:43.421Z,99.9
2022-11-12T21:00:46.193Z,99.9
2022-11-12T21:02:43.824Z,99.9
2022-11-12T21:04:41.430Z,99.9
2022-11-12T21:06:39.084Z,99.9
2022-11-12T21:08:44.562Z,99.9
2022-11-12T21:12:39.811Z,99.9
2022-11-12T21:14:37.419Z,99.9
2022-11-12T21:16:35.028Z,99.9
2022-11-12T21:18:32.631Z,99.9
2022-11-12T21:22:37.311Z,99.9
2022-11-12T21:28:30.570Z,99.9
2022-11-12T21:34:22.981Z,99.9
2022-11-12T21:36:28.515Z,99.9
2022-11-12T21:38:26.365Z,99.9
2022-11-12T21:40:23.741Z,99.9
2022-11-12T21:46:16.614Z,99.9
2022-11-12T21:48:14.219Z,99.9
2022-11-12T21:50:19.734Z,99.9
2022-11-12T21:52:17.366Z,99.9
2022-11-12T21:54:14.988Z,99.9
2022-11-12T21:56:41.953Z,99.9
2022-11-12T21:58:39.578Z,99.9
2022-11-12T22:00:42.309Z,99.9
2022-11-12T22:02:42.804Z,99.9
2022-11-12T22:04:40.320Z,99.9
2022-11-12T22:06:37.967Z,99.9
2022-11-12T22:08:35.517Z,99.9
2022-11-12T22:12:30.769Z,99.9
2022-11-12T22:14:28.397Z,99.9
2022-11-12T22:16:33.922Z,99.9
2022-11-12T22:18:31.548Z,99.9
2022-11-12T22:22:26.786Z,99.9
2022-11-12T22:24:24.378Z,99.9
2022-11-12T22:28:19.625Z,99.9
2022-11-12T22:30:25.154Z,99.9
2022-11-12T22:32:22.752Z,99.9
2022-11-12T22:34:20.379Z,99.9
2022-11-12T22:40:13.698Z,99.9
2022-11-12T22:42:10.839Z,99.9
2022-11-12T22:44:16.352Z,99.9
2022-11-12T22:46:13.955Z,99.9
2022-11-12T22:48:11.566Z,99.9
2022-11-12T22:49:14.322Z,99.9
2022-11-12T22:51:12.019Z,99.9
2022-11-12T22:53:09.611Z,99.9
2022-11-12T22:57:12.742Z,99.9
2022-11-12T22:59:10.377Z,99.9
2022-11-12T23:01:07.969Z,99.9
2022-11-12T23:05:03.182Z,99.9
2022-11-12T23:07:00.839Z,99.9
2022-11-12T23:11:03.932Z,99.9
2022-11-12T23:13:01.577Z,99.9
2022-11-12T23:14:59.189Z,99.9
2022-11-12T23:16:56.809Z,99.9
2022-11-12T23:18:54.417Z,99.9
2022-11-12T23:20:52.041Z,99.9
2022-11-12T23:22:49.620Z,99.9
2022-11-12T23:24:55.148Z,99.9
2022-11-12T23:26:52.755Z,99.9
2022-11-12T23:28:50.359Z,99.9
2022-11-12T23:32:45.577Z,99.9
2022-11-12T23:38:46.315Z,99.9
2022-11-12T23:42:41.535Z,99.9
2022-11-12T23:43:44.296Z,99.9
2022-11-12T23:45:41.912Z,99.9
2022-11-12T23:47:39.554Z,99.9
2022-11-12T23:53:40.258Z,99.9
2022-11-12T23:57:35.515Z,99.9
2022-11-12T23:59:33.116Z,99.9
